createdAt,value
2023-01-12T00:03:40.584Z,100875.56
2023-01-12T00:07:42.240Z,100863.75
2023-01-12T00:11:43.784Z,100871.50
2023-01-12T00:16:03.762Z,100867.44
2023-01-12T00:20:06.299Z,100863.91
2023-01-12T00:24:08.664Z,100862.47
2023-01-12T00:28:10.230Z,100865.91
2023-01-12T00:32:14.248Z,100861.75
2023-01-12T00:36:18.443Z,100853.34
2023-01-12T00:40:19.967Z,100849.88
2023-01-12T00:44:40.069Z,100850.84
2023-01-12T00:48:41.679Z,100845.19
2023-01-12T00:52:43.279Z,100831.13
2023-01-12T00:56:44.906Z,100827.78
2023-01-12T01:00:46.527Z,100829.44
2023-01-12T01:04:49.026Z,100833.69
2023-01-12T01:08:51.181Z,100834.50
2023-01-12T01:12:52.765Z,100827.47
2023-01-12T01:16:54.346Z,100844.31
2023-01-12T01:20:55.954Z,100845.19
2023-01-12T01:24:57.527Z,100854.75
2023-01-12T01:28:59.146Z,100856.81
2023-01-12T01:33:00.677Z,100853.69
2023-01-12T01:37:02.231Z,100863.25
2023-01-12T01:41:05.141Z,100868.66
2023-01-12T01:45:10.840Z,100876.66
2023-01-12T01:49:18.109Z,100867.66
2023-01-12T01:53:22.210Z,100863.34
2023-01-12T01:57:30.282Z,100860.06
2023-01-12T02:01:32.908Z,100853.50
2023-01-12T02:05:36.727Z,100846.88
2023-01-12T02:09:38.866Z,100852.94
2023-01-12T02:13:58.951Z,100824.03
2023-01-12T02:18:24.782Z,100821.34
2023-01-12T02:22:29.472Z,100795.41
2023-01-12T02:26:58.432Z,100796.19
2023-01-12T02:31:02.990Z,100784.03
2023-01-12T02:35:26.766Z,100771.81
2023-01-12T02:39:40.850Z,100777.59
2023-01-12T02:43:42.946Z,100775.03
2023-01-12T02:47:51.675Z,100798.16
2023-01-12T02:52:00.549Z,100788.00
2023-01-12T02:56:07.632Z,100784.03
2023-01-12T03:00:10.371Z,100778.94
2023-01-12T03:04:13.909Z,100778.94
2023-01-12T03:08:23.508Z,100773.19
2023-01-12T03:12:32.480Z,100771.38
2023-01-12T03:16:35.562Z,100779.16
2023-01-12T03:20:43.452Z,100788.66
2023-01-12T03:24:48.954Z,100777.72
2023-01-12T03:28:56.537Z,100777.72
2023-01-12T03:32:58.111Z,100760.78
2023-01-12T03:37:03.165Z,100764.38
2023-01-12T03:41:17.517Z,100759.19
2023-01-12T03:45:40.069Z,100753.34
2023-01-12T03:49:46.896Z,100749.19
2023-01-12T03:53:51.037Z,100756.47
2023-01-12T03:57:53.719Z,100760.06
2023-01-12T04:01:55.616Z,100756.78
2023-01-12T04:05:57.291Z,100755.81
2023-01-12T04:09:58.830Z,100732.91
2023-01-12T04:14:00.350Z,100738.09
2023-01-12T04:18:01.875Z,100721.22
2023-01-12T04:22:22.562Z,100717.06
2023-01-12T04:26:24.438Z,100724.44
2023-01-12T04:30:27.821Z,100709.91
2023-01-12T04:34:29.410Z,100708.91
2023-01-12T04:38:30.962Z,100702.78
2023-01-12T04:42:50.845Z,100691.56
2023-01-12T04:46:52.407Z,100691.38
2023-01-12T04:50:54.126Z,100705.13
2023-01-12T04:54:56.963Z,100696.50
2023-01-12T04:59:00.917Z,100704.47
2023-01-12T05:03:03.414Z,100691.75
2023-01-12T05:07:05.108Z,100681.63
2023-01-12T05:11:06.605Z,100695.31
2023-01-12T05:15:08.448Z,100697.09
2023-01-12T05:19:10.176Z,100698.22
2023-01-12T05:23:11.698Z,100698.31
2023-01-12T05:27:13.218Z,100681.38
2023-01-12T05:31:14.760Z,100673.84
2023-01-12T05:35:16.409Z,100649.09
2023-01-12T05:39:17.946Z,100651.50
2023-01-12T05:43:37.968Z,100657.44
2023-01-12T05:47:39.569Z,100640.44
2023-01-12T05:51:41.129Z,100640.66
2023-01-12T05:55:42.670Z,100632.16
2023-01-12T05:59:44.240Z,100626.97
2023-01-12T06:03:51.311Z,100612.69
2023-01-12T06:07:52.889Z,100610.13
2023-01-12T06:12:13.178Z,100606.75
2023-01-12T06:16:14.784Z,100616.19
2023-01-12T06:20:17.311Z,100622.94
2023-01-12T06:24:19.009Z,100605.06
2023-01-12T06:28:21.142Z,100614.41
2023-01-12T06:32:22.766Z,100605.06
2023-01-12T06:36:24.412Z,100607.72
2023-01-12T06:40:26.009Z,100598.44
2023-01-12T06:44:27.603Z,100612.13
2023-01-12T06:48:38.956Z,100607.97
2023-01-12T06:52:41.825Z,100612.22
2023-01-12T06:56:43.354Z,100607.16
2023-01-12T07:00:45.315Z,100606.41
2023-01-12T07:04:46.928Z,100618.44
2023-01-12T07:08:48.540Z,100616.84
2023-01-12T07:12:50.283Z,100617.72
2023-01-12T07:16:52.643Z,100614.38
2023-01-12T07:20:54.360Z,100606.63
2023-01-12T07:24:57.737Z,100612.72
2023-01-12T07:28:59.490Z,100599.22
2023-01-12T07:33:08.796Z,100600.03
2023-01-12T07:37:10.325Z,100588.13
2023-01-12T07:41:33.063Z,100597.53
2023-01-12T07:45:42.938Z,100600.16
2023-01-12T07:49:44.572Z,100605.19
2023-01-12T07:53:47.748Z,100606.97
2023-01-12T07:58:03.315Z,100601.09
2023-01-12T08:02:05.752Z,100590.75
2023-01-12T08:06:07.588Z,100582.28
2023-01-12T08:10:11.829Z,100591.66
2023-01-12T08:14:31.228Z,100584.69
2023-01-12T08:18:56.890Z,100590.63
2023-01-12T08:23:02.817Z,100599.91
2023-01-12T08:27:07.299Z,100606.50
2023-01-12T08:31:13.823Z,100604.88
2023-01-12T08:35:20.492Z,100599.09
2023-01-12T08:39:22.101Z,100617.91
2023-01-12T08:43:49.761Z,100610.16
2023-01-12T08:47:51.406Z,100616.97
2023-01-12T08:51:53.346Z,100619.59
2023-01-12T08:55:55.130Z,100609.56
2023-01-12T08:59:57.521Z,100609.78
2023-01-12T09:03:59.743Z,100589.59
2023-01-12T09:08:01.368Z,100571.88
2023-01-12T09:12:03.680Z,100567.03
2023-01-12T09:16:12.661Z,100567.91
2023-01-12T09:20:15.498Z,100558.69
2023-01-12T09:24:17.307Z,100568.03
2023-01-12T09:28:18.823Z,100581.69
2023-01-12T09:32:25.993Z,100583.44
2023-01-12T09:36:33.868Z,100587.97
2023-01-12T09:40:35.644Z,100589.81
2023-01-12T09:45:02.292Z,100580.66
2023-01-12T09:49:04.588Z,100594.47
2023-01-12T09:53:18.517Z,100588.66
2023-01-12T09:57:28.781Z,100581.81
2023-01-12T10:01:31.301Z,100583.66
2023-01-12T10:05:57.960Z,100579.69
2023-01-12T10:09:59.605Z,100585.69
2023-01-12T10:14:16.545Z,100580.72
2023-01-12T10:18:26.980Z,100583.28
2023-01-12T10:22:39.416Z,100576.75
2023-01-12T10:26:45.736Z,100572.63
2023-01-12T10:30:47.365Z,100560.06
2023-01-12T10:34:51.009Z,100554.63
2023-01-12T10:38:55.511Z,100554.28
2023-01-12T10:43:31.790Z,100562.25
2023-01-12T10:47:33.926Z,100558.34
2023-01-12T10:51:36.266Z,100555.34
2023-01-12T10:55:40.241Z,100557.28
2023-01-12T10:59:53.950Z,100548.06
2023-01-12T11:04:04.593Z,100546.78
2023-01-12T11:08:28.333Z,100542.28
2023-01-12T11:12:34.851Z,100553.09
2023-01-12T11:16:48.029Z,100553.47
2023-01-12T11:20:54.200Z,100543.31
2023-01-12T11:25:07.240Z,100551.09
2023-01-12T11:29:32.763Z,100543.50
2023-01-12T11:33:41.293Z,100546.84
2023-01-12T11:37:44.029Z,100542.38
2023-01-12T11:42:12.178Z,100514.06
2023-01-12T11:46:34.711Z,100501.13
2023-01-12T11:50:39.434Z,100479.81
2023-01-12T11:54:41.203Z,100476.66
2023-01-12T11:58:56.682Z,100481.78
2023-01-12T12:03:24.954Z,100479.06
2023-01-12T12:07:42.390Z,100485.75
2023-01-12T12:11:56.975Z,100489.00
2023-01-12T12:16:20.216Z,100489.00
2023-01-12T12:20:30.492Z,100480.94
2023-01-12T12:24:43.755Z,100466.97
2023-01-12T12:29:41.088Z,100466.63
2023-01-12T12:34:25.161Z,100479.22
2023-01-12T12:38:52.717Z,100468.81
2023-01-12T12:43:37.762Z,100460.16
2023-01-12T12:47:58.122Z,100463.56
2023-01-12T12:52:00.538Z,100458.47
2023-01-12T12:56:17.333Z,100461.94
2023-01-12T13:00:31.684Z,100472.00
2023-01-12T13:04:42.539Z,100461.66
2023-01-12T13:08:46.128Z,100475.31
2023-01-12T13:12:56.891Z,100469.25
2023-01-12T13:17:20.017Z,100455.78
2023-01-12T13:21:27.413Z,100464.22
2023-01-12T13:25:29.538Z,100467.63
2023-01-12T13:29:38.582Z,100458.44
2023-01-12T13:33:40.286Z,100447.25
2023-01-12T13:37:50.565Z,100457.59
2023-01-12T13:42:11.139Z,100449.97
2023-01-12T13:46:21.221Z,100439.56
2023-01-12T13:50:25.588Z,100438.88
2023-01-12T13:54:27.804Z,100439.75
2023-01-12T13:58:42.474Z,100434.63
2023-01-12T14:02:44.084Z,100431.00
2023-01-12T14:07:19.672Z,100430.81
2023-01-12T14:11:48.213Z,100429.75
2023-01-12T14:16:08.197Z,100429.91
2023-01-12T14:20:20.390Z,100438.53
2023-01-12T14:24:24.750Z,100437.72
2023-01-12T14:28:26.303Z,100432.53
2023-01-12T14:32:27.945Z,100435.97
2023-01-12T14:36:34.632Z,100428.38
2023-01-12T14:40:36.365Z,100423.44
2023-01-12T14:45:10.219Z,100414.03
2023-01-12T14:49:21.423Z,100409.69
2023-01-12T14:53:32.674Z,100411.22
2023-01-12T14:57:36.233Z,100425.72
2023-01-12T15:01:39.089Z,100423.25
2023-01-12T15:05:41.784Z,100415.66
2023-01-12T15:09:52.488Z,100425.81
2023-01-12T15:13:59.328Z,100415.53
2023-01-12T15:18:19.692Z,100427.53
2023-01-12T15:22:45.424Z,100422.19
2023-01-12T15:26:53.356Z,100414.44
2023-01-12T15:31:03.594Z,100407.69
2023-01-12T15:35:23.784Z,100400.94
2023-01-12T15:39:25.395Z,100393.16
2023-01-12T15:43:26.954Z,100403.41
2023-01-12T15:47:29.267Z,100403.41
2023-01-12T15:51:30.879Z,100404.16
2023-01-12T15:55:35.782Z,100414.63
2023-01-12T15:59:37.468Z,100405.22
2023-01-12T16:04:04.861Z,100406.06
2023-01-12T16:08:00.800Z,100405.09
2023-01-12T16:12:02.345Z,100398.03
2023-01-12T16:16:04.533Z,100405.66
2023-01-12T16:20:06.656Z,100406.66
2023-01-12T16:24:09.353Z,100408.31
2023-01-12T16:28:10.915Z,100412.72
2023-01-12T16:32:12.952Z,100422.88
2023-01-12T16:36:15.191Z,100409.22
2023-01-12T16:40:16.815Z,100398.28
2023-01-12T16:44:18.519Z,100405.19
2023-01-12T16:48:20.204Z,100395.72
2023-01-12T16:52:22.026Z,100396.63
2023-01-12T16:56:23.566Z,100374.56
2023-01-12T17:00:27.800Z,100388.34
2023-01-12T17:04:29.432Z,100395.19
2023-01-12T17:08:31.030Z,100376.41
2023-01-12T17:12:32.673Z,100375.53
2023-01-12T17:16:34.557Z,100369.53
2023-01-12T17:20:36.461Z,100359.97
2023-01-12T17:24:40.474Z,100379.50
2023-01-12T17:28:42.213Z,100367.34
2023-01-12T17:32:44.003Z,100363.91
2023-01-12T17:36:46.062Z,100363.84
2023-01-12T17:40:47.608Z,100357.94
2023-01-12T17:44:49.186Z,100363.13
2023-01-12T17:48:50.751Z,100366.53
2023-01-12T17:52:52.352Z,100358.81
2023-01-12T17:56:54.119Z,100366.38
2023-01-12T18:00:55.644Z,100385.00
2023-01-12T18:04:57.335Z,100377.94
2023-01-12T18:08:59.741Z,100357.47
2023-01-12T18:13:01.313Z,100365.16
2023-01-12T18:17:03.150Z,100362.47
2023-01-12T18:21:16.761Z,100357.09
2023-01-12T18:25:18.489Z,100359.63
2023-01-12T18:29:20.378Z,100361.09
2023-01-12T18:33:22.173Z,100354.03
2023-01-12T18:37:23.953Z,100350.69
2023-01-12T18:41:43.920Z,100349.78
2023-01-12T18:45:45.451Z,100359.13
2023-01-12T18:49:49.725Z,100360.00
2023-01-12T18:53:51.503Z,100356.63
2023-01-12T18:57:53.052Z,100360.22
2023-01-12T19:01:55.601Z,100346.53
2023-01-12T19:06:00.414Z,100351.63
2023-01-12T19:10:01.999Z,100344.94
2023-01-12T19:14:22.596Z,100344.97
2023-01-12T19:18:24.269Z,100339.91
2023-01-12T19:22:45.675Z,100349.44
2023-01-12T19:27:05.668Z,100347.88
2023-01-12T19:31:11.483Z,100348.66
2023-01-12T19:35:13.384Z,100339.38
2023-01-12T19:39:18.060Z,100346.19
2023-01-12T19:43:27.691Z,100350.38
2023-01-12T19:47:29.351Z,100342.69
2023-01-12T19:51:30.932Z,100337.56
2023-01-12T19:55:33.726Z,100334.91
2023-01-12T19:59:35.335Z,100326.41
2023-01-12T20:03:39.738Z,100311.94
2023-01-12T20:07:41.384Z,100301.72
2023-01-12T20:11:43.001Z,100300.09
2023-01-12T20:15:44.994Z,100306.94
2023-01-12T20:19:46.702Z,100309.59
2023-01-12T20:23:48.301Z,100306.94
2023-01-12T20:27:51.252Z,100304.41
2023-01-12T20:31:53.305Z,100299.16
2023-01-12T20:35:55.011Z,100291.50
2023-01-12T20:39:57.929Z,100298.31
2023-01-12T20:43:59.511Z,100283.66
2023-01-12T20:48:01.108Z,100278.38
2023-01-12T20:52:02.875Z,100289.44
2023-01-12T20:56:05.630Z,100275.06
2023-01-12T21:00:08.871Z,100267.28
2023-01-12T21:04:10.553Z,100273.19
2023-01-12T21:08:14.122Z,100275.72
2023-01-12T21:12:16.144Z,100280.00
2023-01-12T21:16:19.480Z,100280.00
2023-01-12T21:20:21.181Z,100273.97
2023-01-12T21:24:23.936Z,100278.31
2023-01-12T21:28:25.544Z,100276.53
2023-01-12T21:32:28.883Z,100271.38
2023-01-12T21:36:30.571Z,100250.16
2023-01-12T21:40:32.562Z,100250.28
2023-01-12T21:44:34.160Z,100250.38
2023-01-12T21:48:36.464Z,100242.88
2023-01-12T21:52:39.168Z,100244.66
2023-01-12T21:56:41.076Z,100234.47
2023-01-12T22:00:42.655Z,100215.63
2023-01-12T22:04:44.433Z,100224.25
2023-01-12T22:08:46.013Z,100210.63
2023-01-12T22:12:55.028Z,100217.34
2023-01-12T22:16:56.677Z,100225.22
2023-01-12T22:21:09.217Z,100220.19
2023-01-12T22:25:13.449Z,100219.31
2023-01-12T22:29:18.024Z,100219.41
2023-01-12T22:33:19.685Z,100210.91
2023-01-12T22:37:21.984Z,100214.38
2023-01-12T22:41:24.788Z,100219.56
2023-01-12T22:45:26.326Z,100213.72
2023-01-12T22:49:29.522Z,100196.69
2023-01-12T22:53:31.377Z,100208.81
2023-01-12T22:57:32.906Z,100214.81
2023-01-12T23:01:34.500Z,100207.19
2023-01-12T23:05:45.777Z,100214.09
2023-01-12T23:09:47.296Z,100203.03
2023-01-12T23:13:48.993Z,100197.97
2023-01-12T23:17:50.674Z,100189.44
2023-01-12T23:21:52.268Z,100186.94
2023-01-12T23:25:53.812Z,100186.13
2023-01-12T23:29:55.390Z,100179.34
2023-01-12T23:33:57.146Z,100176.78
2023-01-12T23:37:58.682Z,100164.00
2023-01-12T23:42:00.166Z,100155.38
2023-01-12T23:46:01.791Z,100157.94
2023-01-12T23:50:04.812Z,100157.16
2023-01-12T23:54:07.432Z,100147.84
2023-01-12T23:58:08.958Z,100141.88
